Time;durP1;ratioP1;P1;durP2;ratioP2;P2;SDS_P1;SDS_P2;PMS_P1;PMS_P2;Temp;Humidity;BMP_temperature;BMP_pressure;BME280_temperature;BME280_humidity;BME280_pressure;Samples;Min_cycle;Max_cycle;Signal;HPM_P1;HPM_P2
2022/08/07 00:01:21;;;;;;;1.17;1.00;;;;;;;;;;5078891;28;20208;-79
2022/08/07 00:03:49;;;;;;;1.45;0.70;;;;;;;;;;5077534;28;20263;-79
2022/08/07 00:06:16;;;;;;;0.75;0.75;;;;;;;;;;5075196;28;20789;-80
2022/08/07 00:08:44;;;;;;;0.68;0.68;;;;;;;;;;5076175;28;20232;-79
2022/08/07 00:11:11;;;;;;;0.80;0.65;;;;;;;;;;5074867;28;20287;-79
2022/08/07 00:13:41;;;;;;;0.60;0.60;;;;;;;;;;5075726;28;20685;-78
2022/08/07 00:16:10;;;;;;;0.55;0.55;;;;;;;;;;5076259;28;20311;-79
2022/08/07 00:18:37;;;;;;;2.85;0.60;;;;;;;;;;5076321;28;20225;-79
2022/08/07 00:21:08;;;;;;;0.40;0.40;;;;;;;;;;5077112;28;20768;-80
2022/08/07 00:23:39;;;;;;;0.40;0.40;;;;;;;;;;5077312;28;20263;-79
2022/08/07 00:26:10;;;;;;;0.60;0.60;;;;;;;;;;5074841;28;20247;-79
2022/08/07 00:28:38;;;;;;;0.70;0.70;;;;;;;;;;5075053;28;20292;-79
2022/08/07 00:31:11;;;;;;;0.77;0.73;;;;;;;;;;5074554;28;20570;-79
2022/08/07 00:33:39;;;;;;;0.77;0.77;;;;;;;;;;5075431;28;20280;-79
2022/08/07 00:36:08;;;;;;;0.60;0.60;;;;;;;;;;5075867;28;20225;-79
2022/08/07 00:38:36;;;;;;;0.80;0.60;;;;;;;;;;5077340;28;20642;-79
2022/08/07 00:41:05;;;;;;;0.50;0.50;;;;;;;;;;5076538;28;20197;-79
2022/08/07 00:43:32;;;;;;;0.50;0.50;;;;;;;;;;5077280;28;20637;-79
2022/08/07 00:46:01;;;;;;;0.50;0.50;;;;;;;;;;5076672;28;20225;-79
2022/08/07 00:48:30;;;;;;;0.50;0.50;;;;;;;;;;5075700;28;20284;-79
2022/08/07 00:50:58;;;;;;;0.60;0.60;;;;;;;;;;5075124;28;20225;-80
2022/08/07 00:53:25;;;;;;;0.70;0.70;;;;;;;;;;5075915;28;20328;-80
2022/08/07 00:55:53;;;;;;;0.73;0.73;;;;;;;;;;5074212;28;20318;-79
2022/08/07 00:58:21;;;;;;;1.42;0.60;;;;;;;;;;5074077;28;20308;-79
2022/08/07 01:00:49;;;;;;;0.52;0.52;;;;;;;;;;5077200;28;20264;-80
2022/08/07 01:03:18;;;;;;;0.75;0.50;;;;;;;;;;5081972;28;20235;-80
2022/08/07 01:05:47;;;;;;;0.63;0.63;;;;;;;;;;5075510;28;20236;-80
2022/08/07 01:08:15;;;;;;;0.43;0.43;;;;;;;;;;5075287;28;20258;-80
2022/08/07 01:10:42;;;;;;;0.50;0.50;;;;;;;;;;5074919;28;20207;-80
2022/08/07 01:13:10;;;;;;;0.50;0.50;;;;;;;;;;5074763;28;20209;-79
2022/08/07 01:15:38;;;;;;;0.80;0.80;;;;;;;;;;5074453;28;20221;-79
2022/08/07 01:18:06;;;;;;;0.80;0.80;;;;;;;;;;5074824;28;20283;-79
2022/08/07 01:20:42;;;;;;;0.50;0.50;;;;;;;;;;5074462;28;20240;-79
2022/08/07 01:23:11;;;;;;;0.70;0.70;;;;;;;;;;5075073;28;20308;-79
2022/08/07 01:25:40;;;;;;;0.70;0.70;;;;;;;;;;5074176;28;20661;-79
2022/08/07 01:28:07;;;;;;;0.70;0.70;;;;;;;;;;5074242;28;20205;-79
2022/08/07 01:30:36;;;;;;;0.88;0.80;;;;;;;;;;5073959;28;20291;-80
2022/08/07 01:33:04;;;;;;;0.70;0.70;;;;;;;;;;5074628;28;20316;-79
2022/08/07 01:35:31;;;;;;;0.68;0.68;;;;;;;;;;5073954;28;20319;-79
2022/08/07 01:37:59;;;;;;;0.70;0.70;;;;;;;;;;5073957;28;20287;-80
2022/08/07 01:40:29;;;;;;;0.55;0.55;;;;;;;;;;5074250;28;20290;-80
2022/08/07 01:42:57;;;;;;;0.80;0.80;;;;;;;;;;5074585;28;20259;-79
2022/08/07 01:45:25;;;;;;;0.70;0.70;;;;;;;;;;5074436;28;20235;-79
2022/08/07 01:47:53;;;;;;;0.70;0.70;;;;;;;;;;5074881;28;20201;-79
2022/08/07 01:50:22;;;;;;;0.90;0.90;;;;;;;;;;5074015;28;20702;-79
2022/08/07 01:52:51;;;;;;;0.63;0.63;;;;;;;;;;5073725;28;20200;-79
2022/08/07 01:55:19;;;;;;;1.65;0.70;;;;;;;;;;5074422;28;20212;-79
2022/08/07 01:57:48;;;;;;;0.73;0.70;;;;;;;;;;5073584;28;20287;-79
2022/08/07 02:00:17;;;;;;;0.63;0.63;;;;;;;;;;5074113;28;20277;-79
2022/08/07 02:02:49;;;;;;;0.47;0.47;;;;;;;;;;5074513;28;20280;-79
2022/08/07 02:05:23;;;;;;;0.52;0.50;;;;;;;;;;5074897;28;20764;-79
2022/08/07 02:07:52;;;;;;;1.05;0.68;;;;;;;;;;5073946;28;20296;-79
2022/08/07 02:10:24;;;;;;;0.63;0.63;;;;;;;;;;5077379;28;20890;-79
2022/08/07 02:12:55;;;;;;;0.60;0.60;;;;;;;;;;5086723;28;20248;-79
2022/08/07 02:15:26;;;;;;;1.75;0.70;;;;;;;;;;5087617;28;20236;-80
2022/08/07 02:17:55;;;;;;;0.60;0.60;;;;;;;;;;5086934;28;20255;-80
2022/08/07 02:20:23;;;;;;;0.60;0.60;;;;;;;;;;5078659;28;20651;-79
2022/08/07 02:22:56;;;;;;;0.60;0.60;;;;;;;;;;5078232;28;20312;-78
2022/08/07 02:25:24;;;;;;;0.60;0.60;;;;;;;;;;5077822;28;20201;-80
2022/08/07 02:27:54;;;;;;;0.63;0.63;;;;;;;;;;5078004;28;20288;-80
2022/08/07 02:30:21;;;;;;;0.60;0.60;;;;;;;;;;5077341;28;20292;-78
2022/08/07 02:32:50;;;;;;;0.60;0.60;;;;;;;;;;5077941;28;20291;-80
2022/08/07 02:35:18;;;;;;;0.80;0.80;;;;;;;;;;5078306;28;20231;-79
2022/08/07 02:37:46;;;;;;;0.60;0.60;;;;;;;;;;5078261;28;20224;-80
2022/08/07 02:40:14;;;;;;;0.50;0.50;;;;;;;;;;5077395;28;20228;-80
2022/08/07 02:42:42;;;;;;;0.70;0.70;;;;;;;;;;5078469;28;20642;-80
2022/08/07 02:45:14;;;;;;;0.70;0.70;;;;;;;;;;5077961;28;20201;-79
2022/08/07 02:47:41;;;;;;;0.70;0.70;;;;;;;;;;5077890;28;20284;-79
2022/08/07 02:50:10;;;;;;;1.73;0.85;;;;;;;;;;5078458;28;20300;-79
2022/08/07 02:52:41;;;;;;;1.98;0.77;;;;;;;;;;5078309;28;20288;-80
2022/08/07 02:55:14;;;;;;;0.77;0.60;;;;;;;;;;5077377;28;20293;-79
2022/08/07 02:57:42;;;;;;;0.57;0.57;;;;;;;;;;5077441;28;20304;-80
2022/08/07 03:00:13;;;;;;;0.70;0.70;;;;;;;;;;5077368;28;20288;-79
2022/08/07 03:02:42;;;;;;;0.93;0.80;;;;;;;;;;5077013;28;20280;-79
2022/08/07 03:05:10;;;;;;;0.88;0.70;;;;;;;;;;5077513;28;20232;-79
2022/08/07 03:07:39;;;;;;;1.27;0.60;;;;;;;;;;5084997;28;20697;-80
2022/08/07 03:10:08;;;;;;;0.68;0.55;;;;;;;;;;5077224;28;20287;-80
2022/08/07 03:12:36;;;;;;;0.60;0.60;;;;;;;;;;5076916;28;20288;-80
2022/08/07 03:15:06;;;;;;;0.63;0.63;;;;;;;;;;5077417;28;20767;-79
2022/08/07 03:17:37;;;;;;;0.95;0.80;;;;;;;;;;5076728;28;20839;-79
2022/08/07 03:20:05;;;;;;;1.15;1.05;;;;;;;;;;5077171;28;20216;-80
2022/08/07 03:22:34;;;;;;;0.50;0.50;;;;;;;;;;5076414;28;20284;-79
2022/08/07 03:25:02;;;;;;;1.45;0.63;;;;;;;;;;5076532;28;20616;-80
2022/08/07 03:27:30;;;;;;;0.80;0.77;;;;;;;;;;5076596;28;20221;-79
2022/08/07 03:29:57;;;;;;;0.98;0.98;;;;;;;;;;5077405;28;20732;-79
2022/08/07 03:32:29;;;;;;;0.68;0.68;;;;;;;;;;5076611;28;20227;-79
2022/08/07 03:35:01;;;;;;;0.80;0.80;;;;;;;;;;5077578;28;20204;-79
2022/08/07 03:37:31;;;;;;;0.68;0.68;;;;;;;;;;5076376;28;20217;-79
2022/08/07 03:39:59;;;;;;;0.73;0.73;;;;;;;;;;5076427;28;20291;-79
2022/08/07 03:42:27;;;;;;;0.70;0.70;;;;;;;;;;5076047;28;20268;-79
2022/08/07 03:44:55;;;;;;;0.85;0.70;;;;;;;;;;5076072;28;20247;-79
2022/08/07 03:47:23;;;;;;;0.40;0.40;;;;;;;;;;5075954;28;20284;-79
2022/08/07 03:49:50;;;;;;;0.47;0.47;;;;;;;;;;5076243;28;20759;-79
2022/08/07 03:52:21;;;;;;;0.60;0.60;;;;;;;;;;5075967;28;20284;-79
2022/08/07 03:54:49;;;;;;;0.60;0.60;;;;;;;;;;5076566;28;20240;-79
2022/08/07 03:57:17;;;;;;;1.45;0.77;;;;;;;;;;5076225;28;20635;-79
2022/08/07 03:59:45;;;;;;;0.90;0.60;;;;;;;;;;5076961;28;20291;-80
2022/08/07 04:02:12;;;;;;;0.60;0.60;;;;;;;;;;5076916;28;20265;-78
2022/08/07 04:04:42;;;;;;;0.77;0.77;;;;;;;;;;5075326;28;20438;-79
2022/08/07 04:07:10;;;;;;;0.75;0.75;;;;;;;;;;5075663;28;20296;-80
2022/08/07 04:09:40;;;;;;;0.50;0.50;;;;;;;;;;5075845;28;20237;-79
2022/08/07 04:12:08;;;;;;;0.60;0.60;;;;;;;;;;5075600;28;20315;-79
2022/08/07 04:14:36;;;;;;;0.50;0.50;;;;;;;;;;5075499;28;20217;-80
2022/08/07 04:17:04;;;;;;;1.08;0.90;;;;;;;;;;5075992;28;20696;-79
2022/08/07 04:19:31;;;;;;;0.38;0.38;;;;;;;;;;5075669;28;20269;-79
2022/08/07 04:21:59;;;;;;;0.63;0.63;;;;;;;;;;5075946;28;20382;-79
2022/08/07 04:24:27;;;;;;;0.47;0.47;;;;;;;;;;5075293;28;20739;-79
2022/08/07 04:26:58;;;;;;;0.50;0.50;;;;;;;;;;5075589;28;20283;-79
2022/08/07 04:29:26;;;;;;;0.50;0.50;;;;;;;;;;5075381;28;20215;-80
2022/08/07 04:31:53;;;;;;;1.58;1.27;;;;;;;;;;5075259;28;20291;-79
2022/08/07 04:34:23;;;;;;;0.80;0.80;;;;;;;;;;5075266;28;20248;-80
2022/08/07 04:36:50;;;;;;;0.75;0.40;;;;;;;;;;5075573;28;20201;-80
2022/08/07 04:39:18;;;;;;;1.05;1.02;;;;;;;;;;5075131;28;20316;-80
2022/08/07 04:41:45;;;;;;;1.13;0.50;;;;;;;;;;5075650;28;20296;-80
2022/08/07 04:44:15;;;;;;;0.60;0.60;;;;;;;;;;5074934;28;20292;-79
2022/08/07 04:46:49;;;;;;;0.30;0.30;;;;;;;;;;5075322;28;20284;-79
2022/08/07 04:49:22;;;;;;;0.52;0.52;;;;;;;;;;5075212;28;20265;-80
2022/08/07 04:52:00;;;;;;;0.73;0.52;;;;;;;;;;5075324;28;20288;-80
2022/08/07 04:54:33;;;;;;;1.00;0.60;;;;;;;;;;5075713;28;20585;-79
2022/08/07 04:57:07;;;;;;;0.38;0.38;;;;;;;;;;5076172;28;20640;-80
2022/08/07 04:59:55;;;;;;;0.73;0.60;;;;;;;;;;5076807;28;20203;-79
2022/08/07 05:02:28;;;;;;;0.50;0.50;;;;;;;;;;5076452;28;20207;-80
2022/08/07 05:05:03;;;;;;;0.63;0.63;;;;;;;;;;5095846;22;20263;-81
2022/08/07 05:07:36;;;;;;;0.70;0.70;;;;;;;;;;5098017;28;20265;-82
2022/08/07 05:10:09;;;;;;;0.80;0.80;;;;;;;;;;5097151;28;20570;-82
2022/08/07 05:12:41;;;;;;;1.38;1.33;;;;;;;;;;5096492;28;20687;-81
2022/08/07 05:15:17;;;;;;;0.55;0.55;;;;;;;;;;5096537;28;20207;-82
2022/08/07 05:20:20;;;;;;;0.63;0.63;;;;;;;;;;5011992;28;20243;-78
2022/08/07 05:22:51;;;;;;;0.52;0.52;;;;;;;;;;5015056;28;20290;-80
2022/08/07 05:25:20;;;;;;;0.52;0.52;;;;;;;;;;5015336;28;20295;-78
2022/08/07 05:27:49;;;;;;;0.50;0.50;;;;;;;;;;5014475;28;20277;-79
2022/08/07 05:30:18;;;;;;;0.70;0.70;;;;;;;;;;5013437;28;20293;-78
2022/08/07 05:32:47;;;;;;;0.60;0.60;;;;;;;;;;5013482;28;20631;-79
2022/08/07 05:35:17;;;;;;;2.20;0.85;;;;;;;;;;5013698;28;20725;-78
2022/08/07 05:37:45;;;;;;;0.50;0.50;;;;;;;;;;5013966;28;20199;-78
2022/08/07 05:40:13;;;;;;;0.60;0.60;;;;;;;;;;5013452;28;20306;-77
2022/08/07 05:42:41;;;;;;;0.82;0.50;;;;;;;;;;5012610;28;20210;-79
2022/08/07 05:45:10;;;;;;;1.65;0.70;;;;;;;;;;5017191;28;20230;-79
2022/08/07 05:47:39;;;;;;;0.60;0.60;;;;;;;;;;5016024;28;20643;-79
2022/08/07 05:50:08;;;;;;;0.82;0.77;;;;;;;;;;5016710;28;20290;-79
2022/08/07 05:52:36;;;;;;;0.70;0.70;;;;;;;;;;5016720;28;20290;-79
2022/08/07 05:55:04;;;;;;;0.60;0.60;;;;;;;;;;5016112;28;20311;-79
2022/08/07 05:57:32;;;;;;;0.60;0.60;;;;;;;;;;5016062;28;20306;-79
2022/08/07 06:00:00;;;;;;;0.52;0.52;;;;;;;;;;5016344;28;20309;-79
2022/08/07 06:02:30;;;;;;;0.50;0.50;;;;;;;;;;5016906;28;20298;-80
2022/08/07 06:05:05;;;;;;;1.02;0.82;;;;;;;;;;5017003;28;20234;-79
2022/08/07 06:07:32;;;;;;;1.40;0.60;;;;;;;;;;5017513;28;20675;-79
2022/08/07 06:10:00;;;;;;;0.73;0.73;;;;;;;;;;5017240;28;20293;-79
2022/08/07 06:12:28;;;;;;;0.73;0.70;;;;;;;;;;5017453;28;20202;-79
2022/08/07 06:14:57;;;;;;;0.70;0.70;;;;;;;;;;5016852;28;20309;-79
2022/08/07 06:17:24;;;;;;;0.60;0.60;;;;;;;;;;5016223;28;20698;-79
2022/08/07 06:19:52;;;;;;;0.80;0.80;;;;;;;;;;5017114;28;20710;-79
2022/08/07 06:22:22;;;;;;;1.60;0.98;;;;;;;;;;5017210;28;20294;-79
2022/08/07 06:24:49;;;;;;;0.80;0.80;;;;;;;;;;5017023;28;20313;-79
2022/08/07 06:27:22;;;;;;;0.65;0.65;;;;;;;;;;5019349;28;20302;-81
2022/08/07 06:29:49;;;;;;;0.60;0.60;;;;;;;;;;5015743;28;20194;-79
2022/08/07 06:32:17;;;;;;;0.20;0.20;;;;;;;;;;5016419;28;20282;-80
2022/08/07 06:34:44;;;;;;;0.50;0.50;;;;;;;;;;5015978;28;20306;-82
2022/08/07 06:37:12;;;;;;;0.45;0.45;;;;;;;;;;5016817;28;20290;-86
2022/08/07 06:39:41;;;;;;;0.50;0.50;;;;;;;;;;5016615;28;20660;-81
2022/08/07 06:42:11;;;;;;;0.50;0.50;;;;;;;;;;5014874;28;20290;-84
2022/08/07 06:44:40;;;;;;;0.50;0.50;;;;;;;;;;5015350;28;20221;-85
2022/08/07 06:47:08;;;;;;;0.55;0.55;;;;;;;;;;5015364;28;20274;-82
2022/08/07 06:49:36;;;;;;;0.55;0.55;;;;;;;;;;5014860;28;20215;-84
2022/08/07 06:52:04;;;;;;;0.50;0.50;;;;;;;;;;5015468;28;20294;-84
2022/08/07 06:54:32;;;;;;;0.50;0.50;;;;;;;;;;5015030;28;20318;-84
2022/08/07 06:57:01;;;;;;;0.77;0.60;;;;;;;;;;5014949;28;20637;-84
2022/08/07 06:59:35;;;;;;;0.70;0.70;;;;;;;;;;5012149;28;20306;-84
2022/08/07 07:02:04;;;;;;;0.57;0.57;;;;;;;;;;5013513;28;20282;-84
2022/08/07 07:04:31;;;;;;;0.50;0.50;;;;;;;;;;5014914;28;20215;-83
2022/08/07 07:06:59;;;;;;;1.30;1.20;;;;;;;;;;5015298;28;20711;-83
2022/08/07 07:09:28;;;;;;;0.30;0.30;;;;;;;;;;5015652;28;20286;-84
2022/08/07 07:12:13;;;;;;;0.50;0.50;;;;;;;;;;5015295;28;20290;-85
2022/08/07 07:14:49;;;;;;;0.60;0.60;;;;;;;;;;5015194;28;20761;-84
2022/08/07 07:17:24;;;;;;;0.40;0.40;;;;;;;;;;5015401;28;20286;-84
2022/08/07 07:19:58;;;;;;;1.90;1.20;;;;;;;;;;5014409;28;20317;-84
2022/08/07 07:22:27;;;;;;;0.45;0.45;;;;;;;;;;5015167;28;20737;-84
2022/08/07 07:24:55;;;;;;;0.40;0.40;;;;;;;;;;5014836;28;20246;-83
2022/08/07 07:27:26;;;;;;;0.50;0.50;;;;;;;;;;5015390;28;20263;-84
2022/08/07 07:29:57;;;;;;;0.40;0.40;;;;;;;;;;5014863;28;20237;-84
2022/08/07 07:32:25;;;;;;;0.57;0.57;;;;;;;;;;5015069;28;20210;-83
2022/08/07 07:34:55;;;;;;;0.77;0.77;;;;;;;;;;5014623;28;20223;-81
2022/08/07 07:37:24;;;;;;;0.40;0.40;;;;;;;;;;5014375;28;20234;-84
2022/08/07 07:39:56;;;;;;;0.38;0.38;;;;;;;;;;5014714;28;20223;-86
2022/08/07 07:42:27;;;;;;;0.60;0.60;;;;;;;;;;5014960;28;20310;-83
2022/08/07 07:44:55;;;;;;;0.60;0.60;;;;;;;;;;5014840;28;20310;-83
2022/08/07 07:47:24;;;;;;;0.68;0.68;;;;;;;;;;5014454;28;20290;-84
2022/08/07 07:49:52;;;;;;;0.70;0.70;;;;;;;;;;5014643;28;20290;-85
2022/08/07 07:52:22;;;;;;;0.40;0.40;;;;;;;;;;5014060;28;20322;-84
2022/08/07 07:54:50;;;;;;;0.52;0.52;;;;;;;;;;5013661;28;20311;-85
2022/08/07 07:57:21;;;;;;;0.40;0.40;;;;;;;;;;5013417;28;20203;-84
2022/08/07 07:59:51;;;;;;;0.30;0.30;;;;;;;;;;5013522;28;20277;-82
2022/08/07 08:02:19;;;;;;;0.55;0.55;;;;;;;;;;5016140;28;20210;-85
2022/08/07 08:04:47;;;;;;;0.70;0.70;;;;;;;;;;5014069;28;20532;-88
2022/08/07 08:07:16;;;;;;;0.50;0.50;;;;;;;;;;5012750;28;20294;-79
2022/08/07 08:09:44;;;;;;;0.43;0.43;;;;;;;;;;5013612;28;20290;-86
2022/08/07 08:12:11;;;;;;;1.20;0.57;;;;;;;;;;5014517;28;20608;-84
2022/08/07 08:14:40;;;;;;;0.68;0.68;;;;;;;;;;5013505;28;20265;-82
2022/08/07 08:17:12;;;;;;;0.70;0.70;;;;;;;;;;5015548;28;20238;-85
2022/08/07 08:19:40;;;;;;;0.80;0.80;;;;;;;;;;5014267;28;20266;-80
2022/08/07 08:27:44;;;;;;;0.50;0.50;;;;;;;;;;5013532;28;20210;-85
2022/08/07 08:30:13;;;;;;;0.55;0.50;;;;;;;;;;5013598;28;20282;-86
2022/08/07 08:32:46;;;;;;;0.55;0.55;;;;;;;;;;5016224;28;20282;-87
2022/08/07 08:35:20;;;;;;;0.40;0.40;;;;;;;;;;5014705;28;20382;-90
2022/08/07 08:37:48;;;;;;;0.50;0.50;;;;;;;;;;5013698;28;20278;-86
2022/08/07 08:40:21;;;;;;;0.50;0.50;;;;;;;;;;5014618;28;20313;-84
2022/08/07 08:42:56;;;;;;;1.25;0.85;;;;;;;;;;5014111;28;20218;-86
2022/08/07 08:45:33;;;;;;;0.60;0.60;;;;;;;;;;5017399;28;20222;-85
2022/08/07 08:48:08;;;;;;;0.80;0.80;;;;;;;;;;5016594;28;20722;-85
2022/08/07 08:50:42;;;;;;;0.52;0.52;;;;;;;;;;5014931;28;20658;-84
2022/08/07 08:53:19;;;;;;;0.32;0.32;;;;;;;;;;5013780;28;20755;-85
2022/08/07 08:55:50;;;;;;;1.02;0.45;;;;;;;;;;5016354;28;20245;-84
2022/08/07 08:58:30;;;;;;;0.50;0.50;;;;;;;;;;5014026;28;20241;-86
2022/08/07 09:01:05;;;;;;;0.65;0.65;;;;;;;;;;5017948;28;20310;-86
2022/08/07 09:03:43;;;;;;;1.08;0.70;;;;;;;;;;5015435;28;20698;-84
2022/08/07 09:06:22;;;;;;;0.38;0.38;;;;;;;;;;5015000;28;20302;-86
2022/08/07 09:09:13;;;;;;;0.65;0.65;;;;;;;;;;5013993;28;20222;-86
2022/08/07 09:11:45;;;;;;;0.40;0.40;;;;;;;;;;5013559;28;20538;-83
2022/08/07 09:14:16;;;;;;;0.50;0.50;;;;;;;;;;5014097;28;20318;-87
2022/08/07 09:16:57;;;;;;;2.05;0.90;;;;;;;;;;5014387;28;20597;-84
2022/08/07 09:19:46;;;;;;;0.70;0.70;;;;;;;;;;5013397;28;20226;-86
2022/08/07 09:22:33;;;;;;;0.50;0.50;;;;;;;;;;5014315;28;20223;-86
2022/08/07 09:25:09;;;;;;;0.75;0.50;;;;;;;;;;5013201;28;20210;-85
2022/08/07 09:27:44;;;;;;;0.65;0.65;;;;;;;;;;5015687;28;20198;-84
2022/08/07 09:30:16;;;;;;;0.50;0.50;;;;;;;;;;5015872;28;20249;-82
2022/08/07 09:33:04;;;;;;;0.98;0.68;;;;;;;;;;5016422;28;20212;-84
2022/08/07 09:35:46;;;;;;;0.40;0.40;;;;;;;;;;5017308;28;20293;-82
2022/08/07 09:38:23;;;;;;;0.40;0.40;;;;;;;;;;5015230;28;20214;-82
2022/08/07 09:41:06;;;;;;;0.55;0.50;;;;;;;;;;5016320;28;20658;-84
2022/08/07 09:43:56;;;;;;;0.50;0.50;;;;;;;;;;5017971;28;20286;-83
2022/08/07 09:46:43;;;;;;;0.60;0.60;;;;;;;;;;5015514;28;20282;-81
2022/08/07 09:49:27;;;;;;;0.50;0.50;;;;;;;;;;5019284;28;20202;-82
2022/08/07 09:52:05;;;;;;;0.43;0.40;;;;;;;;;;5016379;28;20302;-84
2022/08/07 09:54:39;;;;;;;0.75;0.75;;;;;;;;;;5017987;28;20234;-83
2022/08/07 09:57:44;;;;;;;0.40;0.40;;;;;;;;;;5018881;28;20222;-83
2022/08/07 10:00:14;;;;;;;0.50;0.50;;;;;;;;;;5017719;28;20257;-84
2022/08/07 10:03:14;;;;;;;0.80;0.80;;;;;;;;;;5017761;28;20231;-84
2022/08/07 10:06:13;;;;;;;0.50;0.50;;;;;;;;;;5017348;28;20297;-83
2022/08/07 10:09:13;;;;;;;0.40;0.40;;;;;;;;;;5013700;28;20582;-83
2022/08/07 10:11:58;;;;;;;0.70;0.70;;;;;;;;;;5014165;28;20231;-82
2022/08/07 10:15:01;;;;;;;0.82;0.40;;;;;;;;;;5013915;28;20648;-83
2022/08/07 10:17:59;;;;;;;0.60;0.60;;;;;;;;;;5014092;28;20257;-83
2022/08/07 10:20:39;;;;;;;0.32;0.32;;;;;;;;;;5013194;28;20203;-82
2022/08/07 10:24:02;;;;;;;0.70;0.70;;;;;;;;;;5012656;28;20230;-82
2022/08/07 10:26:51;;;;;;;0.85;0.50;;;;;;;;;;4965731;28;20242;-83
2022/08/07 10:29:36;;;;;;;0.65;0.65;;;;;;;;;;4971843;28;20208;-83
2022/08/07 10:32:22;;;;;;;1.55;0.85;;;;;;;;;;5006258;28;20225;-82
2022/08/07 10:35:06;;;;;;;0.60;0.60;;;;;;;;;;5016067;28;20782;-83
2022/08/07 10:37:45;;;;;;;0.63;0.63;;;;;;;;;;5016126;28;20591;-83
2022/08/07 10:40:21;;;;;;;0.40;0.40;;;;;;;;;;5015857;28;20187;-83
2022/08/07 10:43:01;;;;;;;0.85;0.85;;;;;;;;;;5015374;28;20321;-82
2022/08/07 10:45:33;;;;;;;0.55;0.50;;;;;;;;;;5015471;28;20237;-83
2022/08/07 10:48:25;;;;;;;0.55;0.55;;;;;;;;;;5015623;28;20643;-83
2022/08/07 10:50:58;;;;;;;0.28;0.28;;;;;;;;;;5016133;28;20256;-83
2022/08/07 10:53:31;;;;;;;0.50;0.50;;;;;;;;;;5015878;28;20313;-83
2022/08/07 10:56:09;;;;;;;2.83;0.70;;;;;;;;;;5015365;28;20294;-85
2022/08/07 10:58:51;;;;;;;0.63;0.63;;;;;;;;;;5015366;28;20203;-83
2022/08/07 11:01:36;;;;;;;0.50;0.50;;;;;;;;;;5015827;28;20653;-81
2022/08/07 11:06:54;;;;;;;0.45;0.45;;;;;;;;;;5026008;28;20215;-82
2022/08/07 11:09:26;;;;;;;0.80;0.60;;;;;;;;;;5016344;28;20199;-83
2022/08/07 11:12:02;;;;;;;0.40;0.40;;;;;;;;;;5015099;28;20210;-83
2022/08/07 11:14:37;;;;;;;2.05;0.75;;;;;;;;;;5016093;28;20644;-82
2022/08/07 11:17:11;;;;;;;0.70;0.70;;;;;;;;;;5016541;28;20286;-82
2022/08/07 11:19:45;;;;;;;0.68;0.68;;;;;;;;;;5016647;28;20742;-82
2022/08/07 11:22:19;;;;;;;0.30;0.30;;;;;;;;;;5016647;28;20301;-82
2022/08/07 11:24:53;;;;;;;0.47;0.47;;;;;;;;;;5015757;28;20253;-82
2022/08/07 11:27:27;;;;;;;0.57;0.57;;;;;;;;;;5014256;28;20289;-82
2022/08/07 11:30:01;;;;;;;0.40;0.40;;;;;;;;;;5014591;28;20652;-82
2022/08/07 11:32:37;;;;;;;0.70;0.70;;;;;;;;;;5015900;28;20690;-82
2022/08/07 11:35:09;;;;;;;0.60;0.60;;;;;;;;;;5020558;28;20305;-82
2022/08/07 11:37:59;;;;;;;0.60;0.60;;;;;;;;;;5036958;28;20346;-82
2022/08/07 11:40:42;;;;;;;0.50;0.50;;;;;;;;;;5037017;28;20244;-82
2022/08/07 11:43:17;;;;;;;0.30;0.30;;;;;;;;;;5036887;28;20222;-82
2022/08/07 11:46:20;;;;;;;0.40;0.40;;;;;;;;;;5037459;28;20333;-81
2022/08/07 11:49:04;;;;;;;0.60;0.60;;;;;;;;;;5028915;28;20289;-82
2022/08/07 11:51:47;;;;;;;0.50;0.50;;;;;;;;;;5035078;28;20368;-82
2022/08/07 11:54:38;;;;;;;0.60;0.60;;;;;;;;;;5035953;28;20202;-81
2022/08/07 11:57:20;;;;;;;0.40;0.40;;;;;;;;;;5036221;28;20213;-81
2022/08/07 12:00:18;;;;;;;0.93;0.60;;;;;;;;;;5038767;28;20216;-82
2022/08/07 12:03:12;;;;;;;0.52;0.52;;;;;;;;;;5014674;28;20237;-80
2022/08/07 12:05:49;;;;;;;0.28;0.28;;;;;;;;;;5038146;28;20230;-82
2022/08/07 12:08:20;;;;;;;0.40;0.40;;;;;;;;;;5035382;28;20206;-80
2022/08/07 12:10:52;;;;;;;0.60;0.60;;;;;;;;;;5036344;28;20297;-80
2022/08/07 12:13:27;;;;;;;0.70;0.70;;;;;;;;;;5036398;28;20293;-80
2022/08/07 12:16:04;;;;;;;0.73;0.73;;;;;;;;;;5036275;28;20232;-82
2022/08/07 12:18:48;;;;;;;0.50;0.50;;;;;;;;;;5035654;28;20233;-81
2022/08/07 12:21:26;;;;;;;0.60;0.60;;;;;;;;;;5036075;28;20293;-82
2022/08/07 12:23:59;;;;;;;0.65;0.65;;;;;;;;;;5035460;28;20297;-82
2022/08/07 12:26:31;;;;;;;0.85;0.85;;;;;;;;;;5035625;28;20226;-83
2022/08/07 12:29:09;;;;;;;0.50;0.50;;;;;;;;;;5038618;28;20874;-82
2022/08/07 12:31:44;;;;;;;3.75;0.50;;;;;;;;;;5037771;28;20289;-82
2022/08/07 12:34:13;;;;;;;0.57;0.57;;;;;;;;;;5038047;28;20197;-81
2022/08/07 12:36:41;;;;;;;0.60;0.60;;;;;;;;;;5037956;28;20225;-82
2022/08/07 12:39:09;;;;;;;0.35;0.35;;;;;;;;;;5050088;28;20669;-82
2022/08/07 12:41:38;;;;;;;0.43;0.43;;;;;;;;;;5041699;28;20252;-82
2022/08/07 12:44:09;;;;;;;0.50;0.50;;;;;;;;;;5036562;28;20800;-82
2022/08/07 12:46:55;;;;;;;0.65;0.65;;;;;;;;;;5036980;28;20285;-82
2022/08/07 12:49:31;;;;;;;0.60;0.60;;;;;;;;;;5036683;28;20248;-81
2022/08/07 12:52:04;;;;;;;0.50;0.50;;;;;;;;;;5037083;28;20265;-82
2022/08/07 12:54:39;;;;;;;0.77;0.77;;;;;;;;;;5036299;28;20587;-81
2022/08/07 12:57:08;;;;;;;0.40;0.40;;;;;;;;;;5036670;28;20308;-81
2022/08/07 12:59:37;;;;;;;0.57;0.45;;;;;;;;;;5037387;28;20281;-82
2022/08/07 13:02:35;;;;;;;0.47;0.47;;;;;;;;;;5038180;28;20297;-82
2022/08/07 13:05:16;;;;;;;0.50;0.50;;;;;;;;;;5035961;28;20234;-81
2022/08/07 13:08:02;;;;;;;0.40;0.40;;;;;;;;;;5017144;28;20252;-82
2022/08/07 13:10:39;;;;;;;0.45;0.45;;;;;;;;;;5017271;28;20234;-81
2022/08/07 13:13:34;;;;;;;0.40;0.40;;;;;;;;;;5017576;28;20198;-80
2022/08/07 13:16:10;;;;;;;0.50;0.50;;;;;;;;;;5015761;28;20330;-81
2022/08/07 13:18:49;;;;;;;0.63;0.63;;;;;;;;;;5015768;28;20266;-81
2022/08/07 13:21:21;;;;;;;0.60;0.60;;;;;;;;;;5016343;28;20561;-81
2022/08/07 13:23:54;;;;;;;0.52;0.40;;;;;;;;;;5015429;28;20234;-81
2022/08/07 13:26:26;;;;;;;0.40;0.40;;;;;;;;;;5016261;28;20230;-82
2022/08/07 13:29:04;;;;;;;0.32;0.32;;;;;;;;;;5016135;28;20734;-81
2022/08/07 13:31:40;;;;;;;0.60;0.60;;;;;;;;;;5035145;28;20218;-80
2022/08/07 13:34:16;;;;;;;0.38;0.38;;;;;;;;;;5035545;28;20408;-81
2022/08/07 13:36:49;;;;;;;0.50;0.50;;;;;;;;;;5036064;28;20245;-81
2022/08/07 13:39:27;;;;;;;0.57;0.57;;;;;;;;;;5036646;28;20285;-80
2022/08/07 13:41:54;;;;;;;1.08;0.65;;;;;;;;;;5035935;28;20210;-81
2022/08/07 13:44:26;;;;;;;0.40;0.40;;;;;;;;;;5035410;28;21962;-80
2022/08/07 13:46:59;;;;;;;0.20;0.20;;;;;;;;;;5035111;28;20228;-80
2022/08/07 13:49:37;;;;;;;0.55;0.55;;;;;;;;;;5034440;28;20297;-80
2022/08/07 13:52:07;;;;;;;0.55;0.52;;;;;;;;;;5034637;28;20293;-79
2022/08/07 13:54:35;;;;;;;0.50;0.50;;;;;;;;;;5034820;28;20305;-80
2022/08/07 13:57:11;;;;;;;0.60;0.60;;;;;;;;;;5034690;28;20203;-80
2022/08/07 13:59:42;;;;;;;0.40;0.40;;;;;;;;;;5034641;28;20198;-79
2022/08/07 14:02:14;;;;;;;0.50;0.50;;;;;;;;;;5035601;28;20288;-81
2022/08/07 14:04:49;;;;;;;0.50;0.50;;;;;;;;;;5036117;28;20225;-80
2022/08/07 14:07:20;;;;;;;0.55;0.55;;;;;;;;;;5038446;28;20675;-80
2022/08/07 14:09:52;;;;;;;0.30;0.30;;;;;;;;;;5038387;28;20202;-79
2022/08/07 14:12:25;;;;;;;0.95;0.57;;;;;;;;;;5038740;28;20741;-80
2022/08/07 14:14:56;;;;;;;0.38;0.38;;;;;;;;;;5040309;28;20305;-80
2022/08/07 14:17:25;;;;;;;1.80;0.50;;;;;;;;;;5039784;28;20229;-79
2022/08/07 14:19:59;;;;;;;0.60;0.60;;;;;;;;;;5039990;28;20289;-80
2022/08/07 14:22:31;;;;;;;0.50;0.50;;;;;;;;;;5038479;28;20233;-79
2022/08/07 14:25:03;;;;;;;0.68;0.40;;;;;;;;;;5039835;28;20774;-80
2022/08/07 14:27:36;;;;;;;0.38;0.38;;;;;;;;;;5041208;28;20685;-80
2022/08/07 14:30:08;;;;;;;0.40;0.40;;;;;;;;;;5041361;28;20267;-80
2022/08/07 14:32:44;;;;;;;0.30;0.30;;;;;;;;;;5041386;28;20262;-80
2022/08/07 14:35:18;;;;;;;0.50;0.50;;;;;;;;;;5041837;28;20308;-80
2022/08/07 14:37:52;;;;;;;0.40;0.40;;;;;;;;;;5021324;28;20202;-80
2022/08/07 14:40:22;;;;;;;0.63;0.63;;;;;;;;;;5020219;28;20289;-79
2022/08/07 14:42:56;;;;;;;0.60;0.60;;;;;;;;;;5019799;28;20205;-79
2022/08/07 14:45:28;;;;;;;0.30;0.30;;;;;;;;;;5020378;28;20219;-79
2022/08/07 14:47:57;;;;;;;0.63;0.63;;;;;;;;;;5025549;28;20258;-79
2022/08/07 14:50:27;;;;;;;0.60;0.60;;;;;;;;;;5039878;28;20241;-79
2022/08/07 14:52:55;;;;;;;0.50;0.50;;;;;;;;;;5040838;28;20230;-79
2022/08/07 14:55:27;;;;;;;0.40;0.40;;;;;;;;;;5039898;28;20249;-78
2022/08/07 14:57:56;;;;;;;0.32;0.32;;;;;;;;;;5039124;28;20202;-79
2022/08/07 15:00:29;;;;;;;0.82;0.82;;;;;;;;;;5039773;28;20202;-79
2022/08/07 15:02:58;;;;;;;0.50;0.50;;;;;;;;;;5040045;28;20206;-79
2022/08/07 15:05:29;;;;;;;0.50;0.50;;;;;;;;;;5040862;28;20234;-78
2022/08/07 15:07:59;;;;;;;0.47;0.47;;;;;;;;;;5040649;28;20210;-79
2022/08/07 15:10:28;;;;;;;0.93;0.45;;;;;;;;;;5040538;28;20233;-79
2022/08/07 15:12:58;;;;;;;0.45;0.45;;;;;;;;;;5041277;28;20633;-79
2022/08/07 15:15:34;;;;;;;0.43;0.43;;;;;;;;;;5040586;28;20221;-79
2022/08/07 15:18:07;;;;;;;0.50;0.50;;;;;;;;;;5040878;28;20206;-79
2022/08/07 15:20:38;;;;;;;0.47;0.47;;;;;;;;;;5040636;28;20206;-79
2022/08/07 15:23:11;;;;;;;0.40;0.40;;;;;;;;;;5040472;28;20213;-79
2022/08/07 15:25:40;;;;;;;0.70;0.70;;;;;;;;;;5039446;28;20261;-79
2022/08/07 15:28:09;;;;;;;0.50;0.50;;;;;;;;;;5040032;28;20630;-79